Time;durP1;ratioP1;P1;durP2;ratioP2;P2;SDS_P1;SDS_P2;PMS_P1;PMS_P2;Temp;Humidity;BMP_temperature;BMP_pressure;BME280_temperature;BME280_humidity;BME280_pressure;Samples;Min_cycle;Max_cycle;Signal;HPM_P1;HPM_P2
2022/10/13 00:00:33;;;;;;;8.05;2.60;;;;;;;;;;5094541;28;20411;-80
2022/10/13 00:03:06;;;;;;;12.00;3.33;;;;;;;;;;5097205;28;20429;-80
2022/10/13 00:05:40;;;;;;;10.10;3.00;;;;;;;;;;5098560;28;20421;-80
2022/10/13 00:08:08;;;;;;;8.30;2.90;;;;;;;;;;5082188;28;20431;-84
2022/10/13 00:10:42;;;;;;;7.80;2.90;;;;;;;;;;5085543;28;20421;-80
2022/10/13 00:13:17;;;;;;;12.30;3.00;;;;;;;;;;5100191;28;20402;-80
2022/10/13 00:15:47;;;;;;;11.40;3.10;;;;;;;;;;5099863;28;20410;-81
2022/10/13 00:18:15;;;;;;;9.07;2.90;;;;;;;;;;5086168;28;20407;-81
2022/10/13 00:20:44;;;;;;;7.75;2.80;;;;;;;;;;5086241;28;20418;-80
2022/10/13 00:23:17;;;;;;;8.50;2.85;;;;;;;;;;5094326;28;20419;-81
2022/10/13 00:25:50;;;;;;;10.73;3.33;;;;;;;;;;5089938;28;20917;-83
2022/10/13 00:28:19;;;;;;;12.75;3.40;;;;;;;;;;5098410;28;20883;-81
2022/10/13 00:30:48;;;;;;;10.95;3.35;;;;;;;;;;5094601;28;20412;-80
2022/10/13 00:33:21;;;;;;;10.70;3.00;;;;;;;;;;5090280;28;20418;-81
2022/10/13 00:35:54;;;;;;;9.38;2.70;;;;;;;;;;5091102;28;20411;-81
2022/10/13 00:38:27;;;;;;;10.30;2.80;;;;;;;;;;5089823;28;20418;-80
2022/10/13 00:40:59;;;;;;;8.88;3.03;;;;;;;;;;5097177;28;20424;-80
2022/10/13 00:43:28;;;;;;;12.75;3.22;;;;;;;;;;5099435;28;20418;-81
2022/10/13 00:45:57;;;;;;;9.15;3.20;;;;;;;;;;5089274;28;20413;-81
2022/10/13 00:48:27;;;;;;;12.53;3.30;;;;;;;;;;5088166;28;20414;-80
2022/10/13 00:50:56;;;;;;;10.33;3.00;;;;;;;;;;5090103;28;20424;-80
2022/10/13 00:53:31;;;;;;;14.20;2.90;;;;;;;;;;5077945;28;20410;-81
2022/10/13 00:56:05;;;;;;;13.50;3.55;;;;;;;;;;5085628;28;20425;-79
2022/10/13 00:58:33;;;;;;;13.90;3.30;;;;;;;;;;5085441;28;20426;-80
2022/10/13 01:01:08;;;;;;;12.93;3.40;;;;;;;;;;5085023;28;21081;-81
2022/10/13 01:03:36;;;;;;;12.05;3.17;;;;;;;;;;5093643;28;20446;-81
2022/10/13 01:06:05;;;;;;;13.70;3.33;;;;;;;;;;5089819;28;20420;-81
2022/10/13 01:08:38;;;;;;;12.53;3.20;;;;;;;;;;5081587;28;20428;-81
2022/10/13 01:11:12;;;;;;;12.27;3.17;;;;;;;;;;5084078;28;20425;-80
2022/10/13 01:13:44;;;;;;;9.57;3.20;;;;;;;;;;5072514;28;20412;-81
2022/10/13 01:16:16;;;;;;;13.43;3.47;;;;;;;;;;5097190;28;20416;-80
2022/10/13 01:18:46;;;;;;;9.07;3.28;;;;;;;;;;5091155;28;20904;-81
2022/10/13 01:21:24;;;;;;;15.65;3.72;;;;;;;;;;5088165;28;20418;-81
2022/10/13 01:24:15;;;;;;;9.63;3.33;;;;;;;;;;5092863;28;20427;-81
2022/10/13 01:27:00;;;;;;;10.70;2.90;;;;;;;;;;5087830;28;20398;-81
2022/10/13 01:30:02;;;;;;;15.15;3.67;;;;;;;;;;5101537;28;20417;-80
2022/10/13 01:32:40;;;;;;;11.45;3.20;;;;;;;;;;5098635;28;20447;-81
2022/10/13 01:35:10;;;;;;;14.68;3.67;;;;;;;;;;5081996;28;20410;-84
2022/10/13 01:37:42;;;;;;;10.40;3.53;;;;;;;;;;5090814;28;20407;-81
2022/10/13 01:40:13;;;;;;;11.13;3.60;;;;;;;;;;5080670;28;20884;-81
2022/10/13 01:42:46;;;;;;;7.95;3.45;;;;;;;;;;5086862;28;20774;-80
2022/10/13 01:45:22;;;;;;;12.48;3.83;;;;;;;;;;5093931;28;20427;-80
2022/10/13 01:47:50;;;;;;;12.50;3.72;;;;;;;;;;5093162;28;20410;-80
2022/10/13 01:50:19;;;;;;;12.30;3.47;;;;;;;;;;5096364;28;20436;-80
2022/10/13 01:52:52;;;;;;;9.38;3.42;;;;;;;;;;5097493;28;20431;-81
2022/10/13 01:55:20;;;;;;;10.00;3.80;;;;;;;;;;5088397;28;20425;-80
2022/10/13 01:57:48;;;;;;;9.82;3.38;;;;;;;;;;5100018;28;20417;-81
2022/10/13 02:00:17;;;;;;;9.27;3.47;;;;;;;;;;5088139;28;20418;-80
2022/10/13 02:02:53;;;;;;;10.70;3.63;;;;;;;;;;5085572;28;20460;-81
2022/10/13 02:05:26;;;;;;;13.03;3.60;;;;;;;;;;5092650;28;20417;-81
2022/10/13 02:07:56;;;;;;;12.85;3.88;;;;;;;;;;5082854;28;20424;-81
2022/10/13 02:10:28;;;;;;;13.70;3.80;;;;;;;;;;5096927;28;20417;-80
2022/10/13 02:13:02;;;;;;;11.40;3.83;;;;;;;;;;5093691;28;20414;-81
2022/10/13 02:15:31;;;;;;;10.05;3.63;;;;;;;;;;5083432;28;20403;-80
2022/10/13 02:18:02;;;;;;;13.20;3.58;;;;;;;;;;5092509;28;20895;-80
2022/10/13 02:20:30;;;;;;;11.02;3.80;;;;;;;;;;5093311;28;20406;-81
2022/10/13 02:23:01;;;;;;;9.90;3.58;;;;;;;;;;5098193;28;20416;-81
2022/10/13 02:25:29;;;;;;;10.43;3.53;;;;;;;;;;5092424;28;20421;-80
2022/10/13 02:28:02;;;;;;;12.25;3.75;;;;;;;;;;5109874;28;20792;-81
2022/10/13 02:30:42;;;;;;;11.03;3.70;;;;;;;;;;5098466;28;20503;-80
2022/10/13 02:33:12;;;;;;;12.85;4.18;;;;;;;;;;5091987;28;20884;-82
2022/10/13 02:35:44;;;;;;;13.80;3.80;;;;;;;;;;5089524;28;20426;-80
2022/10/13 02:38:12;;;;;;;12.15;3.95;;;;;;;;;;5085937;28;20414;-80
2022/10/13 02:40:45;;;;;;;10.50;4.05;;;;;;;;;;5084624;28;20898;-81
2022/10/13 02:43:13;;;;;;;11.07;3.97;;;;;;;;;;5100906;28;20413;-81
2022/10/13 02:45:46;;;;;;;10.93;3.90;;;;;;;;;;5091588;28;20912;-81
2022/10/13 02:48:20;;;;;;;14.77;4.18;;;;;;;;;;5095026;28;20420;-81
2022/10/13 02:50:53;;;;;;;13.18;4.05;;;;;;;;;;5087442;28;20434;-80
2022/10/13 02:53:20;;;;;;;9.45;3.97;;;;;;;;;;5076970;28;20442;-81
2022/10/13 02:55:55;;;;;;;11.90;3.85;;;;;;;;;;5094455;28;20719;-80
2022/10/13 02:58:25;;;;;;;13.45;4.25;;;;;;;;;;5100030;28;20414;-81
2022/10/13 03:01:04;;;;;;;12.27;4.18;;;;;;;;;;5088492;28;20766;-81
2022/10/13 03:03:34;;;;;;;13.38;3.92;;;;;;;;;;5094359;28;20427;-80
2022/10/13 03:06:01;;;;;;;13.30;4.30;;;;;;;;;;5103173;28;20829;-81
2022/10/13 03:08:35;;;;;;;10.82;4.18;;;;;;;;;;5087292;28;20894;-82
2022/10/13 03:11:02;;;;;;;12.77;3.95;;;;;;;;;;5084615;28;20425;-82
2022/10/13 03:13:36;;;;;;;13.50;4.32;;;;;;;;;;5091298;28;20410;-80
2022/10/13 03:16:09;;;;;;;11.77;4.28;;;;;;;;;;5099502;28;20440;-81
2022/10/13 03:18:43;;;;;;;16.40;4.15;;;;;;;;;;5087967;28;20416;-80
2022/10/13 03:21:11;;;;;;;11.43;3.90;;;;;;;;;;5088998;28;20418;-82
2022/10/13 03:23:43;;;;;;;16.75;4.43;;;;;;;;;;5091147;28;20426;-80
2022/10/13 03:26:16;;;;;;;13.75;4.53;;;;;;;;;;5090304;28;20946;-80
2022/10/13 03:28:48;;;;;;;13.95;4.22;;;;;;;;;;5097623;28;20414;-80
2022/10/13 03:31:21;;;;;;;10.75;4.15;;;;;;;;;;5090623;28;20845;-81
2022/10/13 03:33:50;;;;;;;13.75;4.38;;;;;;;;;;5071756;28;20430;-81
2022/10/13 03:36:23;;;;;;;11.98;4.28;;;;;;;;;;5085696;28;20419;-80
2022/10/13 03:38:55;;;;;;;10.45;4.10;;;;;;;;;;5077287;28;20410;-80
2022/10/13 03:41:23;;;;;;;12.77;4.47;;;;;;;;;;5086547;28;20415;-82
2022/10/13 03:43:51;;;;;;;14.25;4.47;;;;;;;;;;5081438;28;20418;-80
2022/10/13 03:46:26;;;;;;;11.65;4.47;;;;;;;;;;5093124;28;20416;-80
2022/10/13 03:48:57;;;;;;;11.38;4.57;;;;;;;;;;5095537;28;20734;-82
2022/10/13 03:51:25;;;;;;;11.75;4.55;;;;;;;;;;5081692;28;20423;-80
2022/10/13 03:53:57;;;;;;;13.88;4.30;;;;;;;;;;5093461;28;20409;-80
2022/10/13 03:56:30;;;;;;;11.00;4.70;;;;;;;;;;5079053;28;20786;-81
2022/10/13 03:59:03;;;;;;;12.43;4.50;;;;;;;;;;5083495;28;20435;-81
2022/10/13 04:01:32;;;;;;;14.02;4.57;;;;;;;;;;5090781;28;20422;-80
2022/10/13 04:04:02;;;;;;;11.85;4.63;;;;;;;;;;5088674;28;20415;-80
2022/10/13 04:06:30;;;;;;;11.55;4.53;;;;;;;;;;5082067;28;20425;-80
2022/10/13 04:08:58;;;;;;;12.27;4.63;;;;;;;;;;5087596;28;20418;-80
2022/10/13 04:11:26;;;;;;;12.10;4.60;;;;;;;;;;5094847;28;20422;-80
2022/10/13 04:13:55;;;;;;;12.80;4.93;;;;;;;;;;5073994;28;20403;-80
2022/10/13 04:16:29;;;;;;;12.10;4.85;;;;;;;;;;5083484;28;20433;-80
2022/10/13 04:18:58;;;;;;;13.65;4.72;;;;;;;;;;5095137;28;20757;-80
2022/10/13 04:21:27;;;;;;;15.10;4.97;;;;;;;;;;5087142;28;20421;-81
2022/10/13 04:24:01;;;;;;;11.07;5.28;;;;;;;;;;5098638;28;20420;-80
2022/10/13 04:26:30;;;;;;;12.13;4.80;;;;;;;;;;5092070;28;20850;-80
2022/10/13 04:28:58;;;;;;;11.73;4.65;;;;;;;;;;5089919;28;20426;-80
2022/10/13 04:31:27;;;;;;;12.60;4.47;;;;;;;;;;5090153;28;20454;-80
2022/10/13 04:34:00;;;;;;;9.30;4.45;;;;;;;;;;5086084;28;20431;-80
2022/10/13 04:36:34;;;;;;;15.30;5.00;;;;;;;;;;5074297;28;20444;-80
2022/10/13 04:39:02;;;;;;;11.07;5.00;;;;;;;;;;5084456;28;20415;-80
2022/10/13 04:41:35;;;;;;;11.20;4.63;;;;;;;;;;5088560;28;20418;-80
2022/10/13 04:44:08;;;;;;;10.07;4.55;;;;;;;;;;5099587;28;20920;-79
2022/10/13 04:46:36;;;;;;;13.10;4.63;;;;;;;;;;5081979;28;20433;-81
2022/10/13 04:49:04;;;;;;;9.53;4.73;;;;;;;;;;5093973;28;20413;-82
2022/10/13 04:51:32;;;;;;;12.85;4.95;;;;;;;;;;5082268;28;20413;-80
2022/10/13 04:54:01;;;;;;;14.05;5.05;;;;;;;;;;5089554;28;20771;-81
2022/10/13 04:56:29;;;;;;;12.73;4.90;;;;;;;;;;5090833;28;20394;-80
2022/10/13 04:59:04;;;;;;;12.63;4.97;;;;;;;;;;5086308;28;20415;-81
2022/10/13 05:01:37;;;;;;;12.10;4.40;;;;;;;;;;5094304;28;20412;-80
2022/10/13 05:04:13;;;;;;;16.20;5.70;;;;;;;;;;5101256;28;20415;-80
2022/10/13 05:06:41;;;;;;;11.55;5.50;;;;;;;;;;5093781;28;20425;-80
2022/10/13 05:09:15;;;;;;;11.98;5.68;;;;;;;;;;5119660;27;20424;-80
2022/10/13 05:11:43;;;;;;;12.90;5.20;;;;;;;;;;5090584;28;20418;-81
2022/10/13 05:14:11;;;;;;;16.48;6.55;;;;;;;;;;5085763;28;20422;-80
2022/10/13 05:16:39;;;;;;;15.43;7.32;;;;;;;;;;5093886;28;20409;-80
2022/10/13 05:19:06;;;;;;;15.65;6.20;;;;;;;;;;5097879;28;20426;-80
2022/10/13 05:21:34;;;;;;;14.68;5.70;;;;;;;;;;5087420;28;20411;-80
2022/10/13 05:24:04;;;;;;;15.57;6.03;;;;;;;;;;5090724;28;20862;-80
2022/10/13 05:26:39;;;;;;;14.60;6.45;;;;;;;;;;5087170;28;20425;-80
2022/10/13 05:29:12;;;;;;;18.65;7.70;;;;;;;;;;5085923;28;20414;-80
2022/10/13 05:31:40;;;;;;;15.10;6.72;;;;;;;;;;5086170;28;20418;-80
2022/10/13 05:34:08;;;;;;;15.75;6.35;;;;;;;;;;5087808;28;20410;-80
2022/10/13 05:36:41;;;;;;;15.82;5.75;;;;;;;;;;5093512;28;20419;-80
2022/10/13 05:39:13;;;;;;;10.35;5.45;;;;;;;;;;5087009;28;20896;-80
2022/10/13 05:41:43;;;;;;;13.98;6.03;;;;;;;;;;5093388;28;20421;-81
2022/10/13 05:44:13;;;;;;;13.02;5.32;;;;;;;;;;5099841;28;20404;-80
2022/10/13 05:46:53;;;;;;;13.38;5.50;;;;;;;;;;5105922;28;20884;-81
2022/10/13 05:49:21;;;;;;;13.35;5.30;;;;;;;;;;5089134;28;20428;-80
2022/10/13 05:51:50;;;;;;;10.82;5.53;;;;;;;;;;5086440;28;20418;-79
2022/10/13 05:54:20;;;;;;;12.65;5.80;;;;;;;;;;5094072;28;20402;-80
2022/10/13 05:56:51;;;;;;;12.65;5.40;;;;;;;;;;5092766;28;20406;-80
2022/10/13 05:59:19;;;;;;;14.30;5.63;;;;;;;;;;5085928;28;20955;-80
2022/10/13 06:01:47;;;;;;;15.25;5.68;;;;;;;;;;5087079;28;20425;-80
2022/10/13 06:04:17;;;;;;;15.95;5.65;;;;;;;;;;5084743;28;20862;-81
2022/10/13 06:06:46;;;;;;;13.70;5.63;;;;;;;;;;5077792;28;20421;-81
2022/10/13 06:09:14;;;;;;;12.23;5.63;;;;;;;;;;5082003;28;20760;-82
2022/10/13 06:11:48;;;;;;;15.55;6.18;;;;;;;;;;5081425;28;20766;-81
2022/10/13 06:14:22;;;;;;;16.23;6.13;;;;;;;;;;5081195;28;21410;-82
2022/10/13 06:16:57;;;;;;;14.13;5.93;;;;;;;;;;5083035;28;20784;-82
2022/10/13 06:19:25;;;;;;;14.38;6.60;;;;;;;;;;5077165;28;20771;-83
2022/10/13 06:22:06;;;;;;;13.93;5.70;;;;;;;;;;5082541;28;20400;-82
2022/10/13 06:24:34;;;;;;;11.73;5.90;;;;;;;;;;5077931;28;20427;-82
2022/10/13 06:27:04;;;;;;;12.60;5.93;;;;;;;;;;5082064;28;20470;-82
2022/10/13 06:29:37;;;;;;;15.50;7.10;;;;;;;;;;5080131;28;20424;-82
2022/10/13 06:32:10;;;;;;;14.27;6.53;;;;;;;;;;5080330;28;20428;-80
2022/10/13 06:34:38;;;;;;;13.73;6.18;;;;;;;;;;5086489;28;21057;-82
2022/10/13 06:37:06;;;;;;;15.57;5.88;;;;;;;;;;5082691;28;20402;-81
2022/10/13 06:39:34;;;;;;;14.93;6.60;;;;;;;;;;5080568;28;20427;-81
2022/10/13 06:42:08;;;;;;;12.68;6.00;;;;;;;;;;5077097;28;20428;-81
2022/10/13 06:44:38;;;;;;;14.87;6.37;;;;;;;;;;5070250;28;20967;-84
2022/10/13 06:47:06;;;;;;;14.73;6.13;;;;;;;;;;5072947;28;20425;-82
2022/10/13 06:49:34;;;;;;;16.67;6.68;;;;;;;;;;5072994;28;20433;-83
2022/10/13 06:52:02;;;;;;;16.65;6.85;;;;;;;;;;5073806;28;21817;-84
2022/10/13 06:54:35;;;;;;;14.07;6.40;;;;;;;;;;5070547;28;20440;-84
2022/10/13 06:57:11;;;;;;;14.52;6.75;;;;;;;;;;5070785;28;20866;-82
2022/10/13 06:59:39;;;;;;;14.98;7.18;;;;;;;;;;5082680;28;20426;-83
2022/10/13 07:02:11;;;;;;;13.27;6.85;;;;;;;;;;5070362;28;20433;-84
2022/10/13 07:04:44;;;;;;;19.08;6.93;;;;;;;;;;5072495;28;20426;-84
2022/10/13 07:07:12;;;;;;;14.65;6.90;;;;;;;;;;5072404;28;20426;-83
2022/10/13 07:09:46;;;;;;;14.65;6.97;;;;;;;;;;5075773;28;21114;-80
2022/10/13 07:12:20;;;;;;;15.48;6.97;;;;;;;;;;5069809;28;20913;-85
2022/10/13 07:14:54;;;;;;;15.30;6.68;;;;;;;;;;5071267;28;20417;-85
2022/10/13 07:17:26;;;;;;;12.98;6.22;;;;;;;;;;5071267;28;20430;-85
2022/10/13 07:19:54;;;;;;;13.95;6.72;;;;;;;;;;5069067;28;20401;-84
2022/10/13 07:22:27;;;;;;;16.42;6.95;;;;;;;;;;5069774;28;20430;-85
2022/10/13 07:25:00;;;;;;;16.50;7.43;;;;;;;;;;5075106;28;20513;-83
2022/10/13 07:27:34;;;;;;;16.90;7.37;;;;;;;;;;5070237;28;20426;-84
2022/10/13 07:30:10;;;;;;;14.65;7.13;;;;;;;;;;5064066;28;20426;-84
2022/10/13 07:32:46;;;;;;;19.80;7.22;;;;;;;;;;5068810;28;20418;-81
2022/10/13 07:35:20;;;;;;;14.43;7.20;;;;;;;;;;5066012;28;20425;-82
2022/10/13 07:37:48;;;;;;;12.70;6.63;;;;;;;;;;5073631;28;21821;-86
2022/10/13 07:40:21;;;;;;;14.00;7.32;;;;;;;;;;5067361;28;20434;-86
2022/10/13 07:42:57;;;;;;;15.65;7.43;;;;;;;;;;5068989;28;20422;-83
2022/10/13 07:45:29;;;;;;;16.83;7.85;;;;;;;;;;5072278;28;20418;-83
2022/10/13 07:48:02;;;;;;;14.95;7.10;;;;;;;;;;5066103;28;21649;-86
2022/10/13 07:50:30;;;;;;;13.80;6.97;;;;;;;;;;5069081;28;20438;-83
2022/10/13 07:53:03;;;;;;;18.52;7.30;;;;;;;;;;5067216;28;20429;-85
2022/10/13 07:55:36;;;;;;;18.63;7.10;;;;;;;;;;5069160;28;20438;-84
2022/10/13 07:58:10;;;;;;;14.20;7.47;;;;;;;;;;5069386;28;20430;-82
2022/10/13 08:00:38;;;;;;;17.48;7.10;;;;;;;;;;5070322;28;20418;-84
2022/10/13 08:03:05;;;;;;;15.88;7.35;;;;;;;;;;5067256;28;21091;-82
2022/10/13 08:05:33;;;;;;;13.77;7.18;;;;;;;;;;5070906;28;21261;-82
2022/10/13 08:08:02;;;;;;;13.57;7.22;;;;;;;;;;5066337;28;20430;-84
2022/10/13 08:10:30;;;;;;;15.80;7.60;;;;;;;;;;5064772;28;20436;-85
2022/10/13 08:12:58;;;;;;;19.00;8.30;;;;;;;;;;5067002;28;20433;-84
2022/10/13 08:15:27;;;;;;;16.40;8.07;;;;;;;;;;5065773;28;20488;-86
2022/10/13 08:18:00;;;;;;;20.02;7.25;;;;;;;;;;5069868;28;20928;-85
2022/10/13 08:20:34;;;;;;;12.70;6.95;;;;;;;;;;5069136;28;20426;-82
2022/10/13 08:23:01;;;;;;;16.02;7.53;;;;;;;;;;5065027;28;20437;-84
2022/10/13 08:25:29;;;;;;;19.58;9.55;;;;;;;;;;5064579;28;20441;-85
2022/10/13 08:28:02;;;;;;;14.70;8.18;;;;;;;;;;5068520;28;20418;-83
2022/10/13 08:30:31;;;;;;;17.58;8.05;;;;;;;;;;5067963;28;20437;-84
2022/10/13 08:32:59;;;;;;;19.58;8.30;;;;;;;;;;5063271;28;20429;-82
2022/10/13 08:35:27;;;;;;;16.03;8.07;;;;;;;;;;5065202;28;20444;-83
2022/10/13 08:38:00;;;;;;;14.80;8.03;;;;;;;;;;5067656;28;20417;-83
2022/10/13 08:40:34;;;;;;;17.33;8.17;;;;;;;;;;5064458;28;20445;-84
2022/10/13 08:43:04;;;;;;;18.55;8.73;;;;;;;;;;5063962;28;20432;-85
2022/10/13 08:45:35;;;;;;;18.55;8.27;;;;;;;;;;5066198;28;20430;-83
2022/10/13 08:48:11;;;;;;;19.20;8.73;;;;;;;;;;5072805;28;20421;-84
2022/10/13 08:50:41;;;;;;;19.52;7.90;;;;;;;;;;5066308;28;20433;-84
2022/10/13 08:53:17;;;;;;;16.10;8.18;;;;;;;;;;5070833;28;20417;-84
2022/10/13 08:55:49;;;;;;;17.48;8.57;;;;;;;;;;5071092;28;20425;-84
2022/10/13 08:58:20;;;;;;;16.00;8.93;;;;;;;;;;5066857;28;20953;-84
2022/10/13 09:00:51;;;;;;;19.17;9.05;;;;;;;;;;5067255;28;20429;-84
2022/10/13 09:03:23;;;;;;;24.20;10.77;;;;;;;;;;5069227;28;20425;-81
2022/10/13 09:05:58;;;;;;;19.07;9.83;;;;;;;;;;5066900;28;20441;-87
2022/10/13 09:08:26;;;;;;;18.47;9.10;;;;;;;;;;5069454;28;20418;-84
2022/10/13 09:10:54;;;;;;;16.17;9.05;;;;;;;;;;5068148;28;21091;-84
2022/10/13 09:13:22;;;;;;;17.00;8.98;;;;;;;;;;5073565;28;20809;-85
2022/10/13 09:15:51;;;;;;;23.08;9.27;;;;;;;;;;5068741;28;20426;-82
2022/10/13 09:18:27;;;;;;;17.38;8.82;;;;;;;;;;5074582;28;20416;-82
2022/10/13 09:21:21;;;;;;;16.47;8.90;;;;;;;;;;5084190;28;20473;-80
2022/10/13 09:24:04;;;;;;;17.53;9.47;;;;;;;;;;5063441;28;20434;-85
2022/10/13 09:26:38;;;;;;;18.33;8.70;;;;;;;;;;5067740;28;20434;-85
2022/10/13 09:29:15;;;;;;;17.27;8.70;;;;;;;;;;5064667;28;20426;-87
2022/10/13 09:31:45;;;;;;;16.27;9.25;;;;;;;;;;5070577;28;20429;-85
2022/10/13 09:34:14;;;;;;;22.63;9.90;;;;;;;;;;5068095;28;20422;-87
2022/10/13 09:36:55;;;;;;;17.88;9.45;;;;;;;;;;5063242;28;20436;-86
2022/10/13 09:39:23;;;;;;;18.60;8.95;;;;;;;;;;5063240;28;20434;-85
2022/10/13 09:42:16;;;;;;;19.85;9.02;;;;;;;;;;5063542;28;20426;-86
2022/10/13 09:44:56;;;;;;;17.70;8.90;;;;;;;;;;5065308;28;20437;-85
2022/10/13 09:47:32;;;;;;;18.38;8.80;;;;;;;;;;5067113;28;20433;-86
2022/10/13 09:50:15;;;;;;;18.63;9.82;;;;;;;;;;5067583;28;20928;-85
2022/10/13 09:52:48;;;;;;;16.45;9.15;;;;;;;;;;5075967;28;20422;-85
2022/10/13 09:55:30;;;;;;;23.83;9.50;;;;;;;;;;5070255;28;20434;-85
2022/10/13 09:58:00;;;;;;;16.67;8.52;;;;;;;;;;5068487;28;20421;-85
2022/10/13 10:00:28;;;;;;;18.33;8.90;;;;;;;;;;5071904;28;20789;-84
2022/10/13 10:03:05;;;;;;;22.45;10.50;;;;;;;;;;5070560;28;20429;-85
2022/10/13 10:05:38;;;;;;;21.77;12.43;;;;;;;;;;5074256;28;20929;-87
2022/10/13 10:08:14;;;;;;;18.42;10.30;;;;;;;;;;5069366;28;20910;-86
2022/10/13 10:10:42;;;;;;;23.33;13.40;;;;;;;;;;5072512;28;20425;-85
2022/10/13 10:13:10;;;;;;;20.35;10.57;;;;;;;;;;5071610;28;20441;-85
2022/10/13 10:15:43;;;;;;;21.23;10.45;;;;;;;;;;5070341;28;20456;-85
2022/10/13 10:18:16;;;;;;;19.27;9.75;;;;;;;;;;5068873;28;20431;-84
2022/10/13 10:20:54;;;;;;;23.67;10.13;;;;;;;;;;5070560;28;20438;-85
2022/10/13 10:23:30;;;;;;;19.98;10.25;;;;;;;;;;5077399;28;20410;-85
2022/10/13 10:26:00;;;;;;;18.63;10.50;;;;;;;;;;5073921;28;20424;-85
2022/10/13 10:28:50;;;;;;;21.30;10.75;;;;;;;;;;5075255;28;21184;-85
2022/10/13 10:31:28;;;;;;;21.07;9.57;;;;;;;;;;5066904;28;20480;-85
2022/10/13 10:34:01;;;;;;;19.92;11.07;;;;;;;;;;5068438;28;20936;-85
2022/10/13 10:36:38;;;;;;;18.73;10.10;;;;;;;;;;5070539;28;21133;-86
2022/10/13 10:39:10;;;;;;;18.00;9.57;;;;;;;;;;5070359;28;20417;-86
2022/10/13 10:41:40;;;;;;;15.67;9.20;;;;;;;;;;5067105;28;20402;-85
2022/10/13 10:44:10;;;;;;;15.43;8.85;;;;;;;;;;5069766;28;20425;-86
2022/10/13 10:46:46;;;;;;;18.63;9.27;;;;;;;;;;5072037;28;20452;-86
2022/10/13 10:49:17;;;;;;;20.02;8.95;;;;;;;;;;5069264;28;20465;-86
2022/10/13 10:51:45;;;;;;;16.95;8.93;;;;;;;;;;5067514;28;20429;-81
2022/10/13 10:54:19;;;;;;;19.23;9.30;;;;;;;;;;5073774;28;20426;-82
2022/10/13 10:56:53;;;;;;;16.67;8.80;;;;;;;;;;5069888;28;20437;-84
2022/10/13 10:59:26;;;;;;;17.07;8.37;;;;;;;;;;5064846;28;20430;-84
2022/10/13 11:02:06;;;;;;;18.50;9.20;;;;;;;;;;5068036;28;21242;-81
2022/10/13 11:04:39;;;;;;;20.52;9.25;;;;;;;;;;5071854;28;21716;-86
2022/10/13 11:07:14;;;;;;;21.10;9.57;;;;;;;;;;5088117;28;21264;-84
2022/10/13 11:10:01;;;;;;;20.77;9.13;;;;;;;;;;5067139;28;20422;-82
2022/10/13 11:12:43;;;;;;;18.75;8.30;;;;;;;;;;5071553;28;20437;-82
2022/10/13 11:15:12;;;;;;;17.00;8.70;;;;;;;;;;5072855;28;20921;-83
2022/10/13 11:17:42;;;;;;;17.70;8.52;;;;;;;;;;5064219;28;20517;-87
2022/10/13 11:20:33;;;;;;;17.30;9.13;;;;;;;;;;5069090;28;20418;-85
2022/10/13 11:23:21;;;;;;;17.50;8.90;;;;;;;;;;5077801;28;20429;-83
2022/10/13 11:26:18;;;;;;;16.05;9.15;;;;;;;;;;5070345;28;20425;-85
2022/10/13 11:28:52;;;;;;;17.70;9.00;;;;;;;;;;5062081;28;20441;-85
2022/10/13 11:31:24;;;;;;;17.92;8.73;;;;;;;;;;5068348;28;20453;-84
2022/10/13 11:33:58;;;;;;;16.88;8.80;;;;;;;;;;5071336;28;20433;-85
2022/10/13 11:36:38;;;;;;;17.88;9.55;;;;;;;;;;5068412;28;20922;-85
2022/10/13 11:39:18;;;;;;;18.83;8.95;;;;;;;;;;5067082;28;20401;-85
2022/10/13 11:41:55;;;;;;;18.00;8.90;;;;;;;;;;5070364;28;20430;-84
2022/10/13 11:44:27;;;;;;;17.20;8.55;;;;;;;;;;5074156;28;20873;-84
2022/10/13 11:46:59;;;;;;;17.23;8.60;;;;;;;;;;5067130;28;20496;-85
2022/10/13 11:49:46;;;;;;;15.60;8.77;;;;;;;;;;5071210;28;20418;-83
2022/10/13 11:52:20;;;;;;;17.15;8.30;;;;;;;;;;5070753;28;20452;-84
2022/10/13 11:54:50;;;;;;;16.67;8.88;;;;;;;;;;5067545;28;20425;-84
2022/10/13 11:57:21;;;;;;;17.58;8.50;;;;;;;;;;5072076;28;20428;-84
2022/10/13 11:59:55;;;;;;;14.65;8.48;;;;;;;;;;5068042;28;20771;-85
2022/10/13 12:02:28;;;;;;;17.38;8.35;;;;;;;;;;5065838;28;20434;-83
2022/10/13 12:04:59;;;;;;;17.58;8.07;;;;;;;;;;5074858;28;20770;-86
2022/10/13 12:07:39;;;;;;;16.08;8.60;;;;;;;;;;5070047;28;20414;-85
2022/10/13 12:10:17;;;;;;;16.20;8.65;;;;;;;;;;5072434;28;20422;-83
2022/10/13 12:12:48;;;;;;;15.23;7.97;;;;;;;;;;5064356;28;21079;-83
2022/10/13 12:15:27;;;;;;;14.52;7.88;;;;;;;;;;5063701;28;20452;-86
2022/10/13 12:18:00;;;;;;;13.93;7.53;;;;;;;;;;5068157;28;20456;-84
2022/10/13 12:20:33;;;;;;;14.40;8.18;;;;;;;;;;5063491;28;20802;-86
2022/10/13 12:23:01;;;;;;;17.80;8.00;;;;;;;;;;5064899;28;20897;-86
2022/10/13 12:25:34;;;;;;;16.55;8.35;;;;;;;;;;5071314;28;20917;-88
2022/10/13 12:28:03;;;;;;;16.30;8.05;;;;;;;;;;5064958;28;20433;-87
2022/10/13 12:30:36;;;;;;;17.43;8.20;;;;;;;;;;5069678;28;20457;-86
2022/10/13 12:33:19;;;;;;;18.45;8.55;;;;;;;;;;5069236;28;20441;-86
2022/10/13 12:35:47;;;;;;;13.33;8.00;;;;;;;;;;5072168;28;20413;-84
2022/10/13 12:38:20;;;;;;;14.77;7.78;;;;;;;;;;5073172;28;20433;-85
2022/10/13 12:40:53;;;;;;;16.17;7.60;;;;;;;;;;5072566;28;20426;-84
2022/10/13 12:43:26;;;;;;;14.63;7.63;;;;;;;;;;5068596;28;20452;-85
2022/10/13 12:45:54;;;;;;;14.88;7.68;;;;;;;;;;5066966;28;20955;-85
2022/10/13 12:48:28;;;;;;;17.73;7.93;;;;;;;;;;5069344;28;20422;-86
2022/10/13 12:51:09;;;;;;;15.98;7.75;;;;;;;;;;5071694;28;20441;-85
2022/10/13 12:53:44;;;;;;;17.25;9.20;;;;;;;;;;5064754;28;20425;-85
2022/10/13 12:56:25;;;;;;;15.82;8.10;;;;;;;;;;5070630;28;20957;-85
2022/10/13 12:58:59;;;;;;;16.40;8.70;;;;;;;;;;5074265;28;20799;-85
2022/10/13 13:01:28;;;;;;;18.42;8.05;;;;;;;;;;5070445;28;20426;-86
2022/10/13 13:03:57;;;;;;;18.65;8.38;;;;;;;;;;5070064;28;20467;-85
2022/10/13 13:06:31;;;;;;;14.73;6.93;;;;;;;;;;5066134;28;20437;-86
2022/10/13 13:09:14;;;;;;;15.97;7.10;;;;;;;;;;5069210;28;20430;-87
2022/10/13 13:11:47;;;;;;;12.98;6.53;;;;;;;;;;5071133;28;20430;-86
2022/10/13 13:14:33;;;;;;;17.80;8.02;;;;;;;;;;5067685;28;20481;-83
2022/10/13 13:17:06;;;;;;;20.20;8.13;;;;;;;;;;5069374;28;21250;-85
2022/10/13 13:19:39;;;;;;;177.38;26.83;;;;;;;;;;5067160;28;20429;-84
2022/10/13 13:22:13;;;;;;;18.73;8.07;;;;;;;;;;5070075;28;21273;-85
2022/10/13 13:24:42;;;;;;;48.63;11.80;;;;;;;;;;5069258;28;20433;-84
2022/10/13 13:27:16;;;;;;;21.73;8.48;;;;;;;;;;5069152;28;20429;-87
2022/10/13 13:29:50;;;;;;;15.75;6.88;;;;;;;;;;5075379;28;20971;-85
2022/10/13 13:32:24;;;;;;;14.30;6.93;;;;;;;;;;5073798;28;20433;-85
2022/10/13 13:34:57;;;;;;;13.80;6.60;;;;;;;;;;5073161;28;21078;-86
2022/10/13 13:37:29;;;;;;;15.82;6.00;;;;;;;;;;5076092;28;20430;-85
2022/10/13 13:40:02;;;;;;;13.37;6.10;;;;;;;;;;5070695;28;20426;-87
2022/10/13 13:42:31;;;;;;;16.65;6.20;;;;;;;;;;5073568;28;20433;-85
2022/10/13 13:45:05;;;;;;;18.85;6.50;;;;;;;;;;5070626;28;20430;-84
2022/10/13 13:47:38;;;;;;;15.38;6.80;;;;;;;;;;5072476;28;20457;-84
2022/10/13 13:50:11;;;;;;;14.43;6.22;;;;;;;;;;5067763;28;20437;-83
2022/10/13 13:52:47;;;;;;;12.52;6.32;;;;;;;;;;5068790;28;20433;-84
2022/10/13 13:55:15;;;;;;;12.50;6.10;;;;;;;;;;5068863;28;20422;-83
2022/10/13 13:57:43;;;;;;;13.83;6.40;;;;;;;;;;5075199;28;20445;-84
2022/10/13 14:00:17;;;;;;;14.77;6.20;;;;;;;;;;5072366;28;20433;-85
2022/10/13 14:02:49;;;;;;;11.43;6.20;;;;;;;;;;5074289;28;20433;-83
2022/10/13 14:05:17;;;;;;;11.95;6.30;;;;;;;;;;5069378;28;20433;-85
2022/10/13 14:07:52;;;;;;;13.60;6.65;;;;;;;;;;5072345;28;20425;-84
2022/10/13 14:10:20;;;;;;;14.33;6.40;;;;;;;;;;5071294;28;20444;-83
2022/10/13 14:12:48;;;;;;;13.68;6.30;;;;;;;;;;5069429;28;20470;-83
2022/10/13 14:15:22;;;;;;;14.75;6.40;;;;;;;;;;5073861;28;20430;-82
2022/10/13 14:17:51;;;;;;;11.68;6.07;;;;;;;;;;5070168;28;20422;-83
2022/10/13 14:20:24;;;;;;;13.73;6.10;;;;;;;;;;5071554;28;20452;-85
2022/10/13 14:22:57;;;;;;;14.07;6.55;;;;;;;;;;5073313;28;20418;-83
2022/10/13 14:25:29;;;;;;;13.97;6.43;;;;;;;;;;5070422;28;21894;-83
2022/10/13 14:28:02;;;;;;;14.40;7.07;;;;;;;;;;5072059;28;20473;-84
2022/10/13 14:30:38;;;;;;;12.95;5.97;;;;;;;;;;5074585;28;20794;-84
2022/10/13 14:33:06;;;;;;;13.70;6.07;;;;;;;;;;5071112;28;20422;-84
2022/10/13 14:35:34;;;;;;;14.15;5.88;;;;;;;;;;5071718;28;20429;-87
2022/10/13 14:38:04;;;;;;;13.40;6.65;;;;;;;;;;5070541;28;21950;-86
2022/10/13 14:40:40;;;;;;;15.73;6.00;;;;;;;;;;5067173;28;20426;-83
2022/10/13 14:43:08;;;;;;;11.43;5.82;;;;;;;;;;5065534;28;20426;-82
2022/10/13 14:45:42;;;;;;;13.23;5.70;;;;;;;;;;5073195;28;20421;-85
2022/10/13 14:48:15;;;;;;;13.70;4.82;;;;;;;;;;5069255;28;20438;-86
2022/10/13 14:50:48;;;;;;;15.17;5.53;;;;;;;;;;5067800;28;20432;-84
2022/10/13 14:53:23;;;;;;;10.00;4.82;;;;;;;;;;5067667;28;20426;-85
2022/10/13 14:55:56;;;;;;;11.10;4.78;;;;;;;;;;5068418;28;20429;-85
2022/10/13 14:58:24;;;;;;;12.45;4.60;;;;;;;;;;5068803;28;20531;-85
2022/10/13 15:00:58;;;;;;;11.23;5.18;;;;;;;;;;5066839;28;20426;-84